Time;durP1;ratioP1;P1;durP2;ratioP2;P2;SDS_P1;SDS_P2;PMS_P1;PMS_P2;Temp;Humidity;BMP_temperature;BMP_pressure;BME280_temperature;BME280_humidity;BME280_pressure;Samples;Min_cycle;Max_cycle;Signal;HPM_P1;HPM_P2
2024/04/25 00:00:58;;;;;;;4.60;3.80;;;3.30;1.00;;;;;;5494650;26;21007;-43
2024/04/25 00:03:23;;;;;;;7.93;4.17;;;3.40;1.00;;;;;;5461653;26;20506;-40
2024/04/25 00:05:49;;;;;;;6.03;4.00;;;3.30;1.00;;;;;;5493651;26;20449;-40
2024/04/25 00:08:15;;;;;;;4.70;4.23;;;3.30;1.00;;;;;;5493190;26;20510;-40
2024/04/25 00:10:41;;;;;;;6.33;4.30;;;3.30;1.00;;;;;;5493990;26;20329;-40
2024/04/25 00:13:07;;;;;;;7.70;4.33;;;3.20;1.00;;;;;;5461761;26;20458;-43
2024/04/25 00:15:33;;;;;;;4.03;3.40;;;3.30;1.00;;;;;;5493531;26;20271;-43
2024/04/25 00:17:59;;;;;;;7.90;4.27;;;3.30;1.00;;;;;;5461136;26;20473;-43
2024/04/25 00:20:24;;;;;;;7.20;4.30;;;3.60;1.00;;;;;;5494053;26;20438;-43
2024/04/25 00:22:50;;;;;;;6.57;4.60;;;3.90;1.00;;;;;;5494214;26;20240;-42
2024/04/25 00:25:16;;;;;;;4.80;4.30;;;4.30;1.00;;;;;;5494786;26;20233;-36
2024/04/25 00:27:42;;;;;;;4.40;3.97;;;4.30;1.00;;;;;;5493898;26;20469;-37
2024/04/25 00:30:08;;;;;;;5.00;3.77;;;4.30;1.00;;;;;;5493429;26;20473;-46
2024/04/25 00:32:34;;;;;;;5.17;3.97;;;4.10;99.90;;;;;;5461803;26;20243;-46
2024/04/25 00:35:02;;;;;;;5.63;4.17;;;3.90;99.90;;;;;;5493647;26;20453;-46
2024/04/25 00:37:28;;;;;;;4.50;3.77;;;3.70;99.90;;;;;;5493849;26;20512;-46
2024/04/25 00:39:55;;;;;;;4.00;3.60;;;3.60;99.90;;;;;;5493868;26;20469;-45
2024/04/25 00:42:21;;;;;;;4.10;3.60;;;3.50;1.00;;;;;;5493827;26;20228;-46
2024/04/25 00:44:48;;;;;;;6.53;3.80;;;3.40;1.00;;;;;;5493776;26;20558;-46
2024/04/25 00:47:17;;;;;;;4.80;4.30;;;3.30;1.00;;;;;;5493758;26;20434;-46
2024/04/25 00:49:43;;;;;;;4.43;4.03;;;3.20;1.00;;;;;;5493282;26;20563;-45
2024/04/25 00:52:10;;;;;;;5.10;4.40;;;3.10;1.00;;;;;;5493647;26;20868;-46
2024/04/25 00:54:37;;;;;;;4.40;3.90;;;3.10;1.00;;;;;;5493573;26;20462;-47
2024/04/25 00:57:03;;;;;;;6.77;4.40;;;3.00;1.00;;;;;;5493962;26;20566;-46
2024/04/25 00:59:30;;;;;;;6.73;4.30;;;3.00;1.00;;;;;;5461100;26;20492;-46
2024/04/25 01:01:59;;;;;;;5.57;4.47;;;2.90;1.00;;;;;;5493605;26;20778;-45
2024/04/25 01:04:26;;;;;;;4.93;4.23;;;2.90;1.00;;;;;;5461105;26;20465;-44
2024/04/25 01:06:54;;;;;;;7.70;4.47;;;2.90;1.00;;;;;;5492304;26;20888;-45
2024/04/25 01:09:20;;;;;;;5.50;4.60;;;3.00;1.00;;;;;;5460554;26;20465;-45
2024/04/25 01:11:45;;;;;;;5.60;4.17;;;2.90;1.00;;;;;;5492863;26;20495;-45
2024/04/25 01:14:11;;;;;;;5.90;4.63;;;3.00;1.00;;;;;;5493349;26;20495;-45
2024/04/25 01:16:36;;;;;;;4.00;3.60;;;3.10;1.00;;;;;;5460944;26;20635;-45
2024/04/25 01:19:02;;;;;;;5.00;4.50;;;3.10;1.00;;;;;;5493047;26;20287;-46
2024/04/25 01:21:28;;;;;;;5.37;4.47;;;3.10;1.00;;;;;;5492986;26;20267;-45
2024/04/25 01:23:55;;;;;;;5.07;4.33;;;3.10;1.00;;;;;;5461042;26;20657;-46
2024/04/25 01:26:21;;;;;;;5.37;4.60;;;3.00;1.00;;;;;;5492918;26;20588;-46
2024/04/25 01:28:47;;;;;;;5.90;5.00;;;3.10;1.00;;;;;;5493514;26;20450;-46
2024/04/25 01:31:13;;;;;;;7.07;4.73;;;3.10;1.00;;;;;;5493351;26;20275;-46
2024/04/25 01:33:39;;;;;;;8.10;5.00;;;3.10;1.00;;;;;;5461017;26;20465;-45
2024/04/25 01:36:05;;;;;;;5.13;4.63;;;3.10;1.00;;;;;;5459630;26;20779;-46
2024/04/25 01:38:30;;;;;;;5.63;4.33;;;3.00;1.00;;;;;;5492488;26;20430;-46
2024/04/25 01:40:56;;;;;;;6.30;4.87;;;3.10;1.00;;;;;;5492640;26;20899;-46
2024/04/25 01:43:22;;;;;;;5.00;4.50;;;3.10;1.00;;;;;;5492775;26;20267;-46
2024/04/25 01:45:47;;;;;;;5.80;4.70;;;3.10;1.00;;;;;;5493045;26;20599;-46
2024/04/25 01:48:13;;;;;;;5.57;4.80;;;3.10;1.00;;;;;;5492501;26;20615;-46
2024/04/25 01:50:39;;;;;;;5.23;4.73;;;3.10;1.00;;;;;;5492403;26;20259;-45
2024/04/25 01:53:04;;;;;;;5.27;4.70;;;3.10;1.00;;;;;;5492147;26;20216;-45
2024/04/25 01:55:30;;;;;;;5.53;5.03;;;3.10;1.00;;;;;;5491559;26;20716;-45
2024/04/25 01:57:56;;;;;;;4.57;4.17;;;3.10;1.00;;;;;;5492334;26;20275;-45
2024/04/25 02:00:21;;;;;;;4.97;4.47;;;3.10;1.00;;;;;;5492033;26;20560;-46
2024/04/25 02:02:47;;;;;;;5.23;4.73;;;3.10;1.00;;;;;;5459378;26;20224;-46
2024/04/25 02:05:13;;;;;;;6.60;4.77;;;3.10;1.00;;;;;;5490147;26;20213;-46
2024/04/25 02:07:38;;;;;;;5.53;4.50;;;3.00;1.00;;;;;;5489860;26;20236;-46
2024/04/25 02:10:04;;;;;;;6.13;5.10;;;3.00;1.00;;;;;;5491983;26;20229;-46
2024/04/25 02:12:30;;;;;;;6.10;5.50;;;3.00;1.00;;;;;;5490867;26;20275;-45
2024/04/25 02:14:56;;;;;;;6.93;5.70;;;3.10;1.00;;;;;;5490346;26;20454;-46
2024/04/25 02:17:21;;;;;;;6.77;5.10;;;3.10;1.00;;;;;;5492429;26;20209;-46
2024/04/25 02:19:47;;;;;;;6.97;5.13;;;3.10;1.00;;;;;;5491062;26;20994;-46
2024/04/25 02:25:16;;;;;;;6.37;5.20;;;3.00;1.00;;;;;;5491298;26;20298;-46
2024/04/25 02:27:43;;;;;;;5.17;4.67;;;2.90;1.00;;;;;;5491544;26;20465;-46
2024/04/25 02:30:09;;;;;;;7.10;5.57;;;2.90;1.00;;;;;;5491260;26;20774;-46
2024/04/25 02:32:34;;;;;;;6.30;5.20;;;2.90;1.00;;;;;;5490855;26;20501;-46
2024/04/25 02:35:00;;;;;;;9.90;5.73;;;2.90;1.00;;;;;;5491514;26;20449;-46
2024/04/25 02:37:26;;;;;;;7.03;5.60;;;2.90;1.00;;;;;;5490824;26;20232;-45
2024/04/25 02:39:51;;;;;;;6.10;5.50;;;2.90;1.00;;;;;;5491488;26;20275;-46
2024/04/25 02:42:17;;;;;;;6.40;5.60;;;3.00;1.00;;;;;;5490911;26;20622;-46
2024/04/25 02:44:42;;;;;;;7.30;6.60;;;3.00;1.00;;;;;;5491504;26;20233;-46
2024/04/25 02:47:08;;;;;;;7.00;6.20;;;3.00;1.00;;;;;;5490991;26;20318;-46
2024/04/25 02:49:34;;;;;;;7.57;5.83;;;3.10;1.00;;;;;;5491109;26;20228;-46
2024/04/25 02:51:59;;;;;;;6.30;5.67;;;3.10;1.00;;;;;;5490619;26;20271;-45
2024/04/25 02:54:25;;;;;;;6.87;5.70;;;3.10;1.00;;;;;;5490547;26;20517;-45
2024/04/25 02:56:50;;;;;;;7.47;6.60;;;3.10;1.00;;;;;;5490479;26;20263;-46
2024/04/25 02:59:16;;;;;;;7.27;6.53;;;3.00;1.00;;;;;;5490776;26;20267;-46
2024/04/25 03:01:42;;;;;;;9.20;6.70;;;3.00;1.00;;;;;;5458506;26;20727;-46
2024/04/25 03:04:07;;;;;;;8.50;6.87;;;3.10;1.00;;;;;;5458569;26;20228;-46
2024/04/25 03:06:33;;;;;;;7.90;7.10;;;3.00;1.00;;;;;;5458172;26;20224;-44
2024/04/25 03:08:59;;;;;;;9.60;7.30;;;3.00;1.00;;;;;;5490451;26;20642;-46
2024/04/25 03:11:24;;;;;;;8.80;7.77;;;3.00;1.00;;;;;;5488660;26;20236;-45
2024/04/25 03:13:50;;;;;;;9.47;8.07;;;3.00;1.00;;;;;;5489303;26;20345;-46
2024/04/25 03:16:15;;;;;;;7.27;6.57;;;2.90;1.00;;;;;;5488959;26;20228;-46
2024/04/25 03:18:41;;;;;;;8.50;7.10;;;3.00;1.00;;;;;;5458146;26;20520;-46
2024/04/25 03:21:07;;;;;;;11.27;7.80;;;3.00;1.00;;;;;;5489505;26;20213;-46
2024/04/25 03:23:35;;;;;;;10.77;7.30;;;2.90;1.00;;;;;;5485814;26;20236;-46
2024/04/25 03:26:07;;;;;;;9.07;6.80;;;2.90;1.00;;;;;;5484270;26;20450;-46
2024/04/25 03:28:33;;;;;;;8.57;7.00;;;3.00;1.00;;;;;;5483367;26;20859;-46
2024/04/25 03:30:59;;;;;;;9.00;7.40;;;2.90;1.00;;;;;;5482860;26;20442;-46
2024/04/25 03:33:25;;;;;;;7.97;7.17;;;2.90;1.00;;;;;;5450033;26;20550;-46
2024/04/25 03:35:51;;;;;;;8.63;7.10;;;2.90;1.00;;;;;;5483618;26;20660;-46
2024/04/25 03:38:16;;;;;;;8.60;6.40;;;2.90;1.00;;;;;;5485670;26;20494;-46
2024/04/25 03:40:42;;;;;;;7.77;7.07;;;2.90;1.00;;;;;;5488495;26;20232;-46
2024/04/25 03:43:07;;;;;;;8.00;6.30;;;2.90;1.00;;;;;;5487987;26;20293;-45
2024/04/25 03:45:33;;;;;;;6.67;5.97;;;3.00;1.00;;;;;;5485773;26;20224;-45
2024/04/25 03:47:59;;;;;;;6.27;5.50;;;2.90;1.00;;;;;;5485157;26;20678;-46
2024/04/25 03:50:25;;;;;;;10.60;6.23;;;2.90;1.00;;;;;;5487760;26;20536;-46
2024/04/25 03:52:50;;;;;;;8.83;6.07;;;3.00;1.00;;;;;;5488207;26;20280;-44
2024/04/25 03:55:17;;;;;;;12.33;5.37;;;3.00;1.00;;;;;;5488663;26;20677;-45
2024/04/25 03:57:42;;;;;;;6.30;5.70;;;3.00;1.00;;;;;;5488076;26;20209;-46
2024/04/25 04:00:08;;;;;;;7.40;4.73;;;2.90;1.00;;;;;;5486977;26;20916;-46
2024/04/25 04:02:34;;;;;;;5.47;4.97;;;3.00;1.00;;;;;;5489161;26;20464;-45
2024/04/25 04:05:00;;;;;;;6.90;6.20;;;2.90;1.00;;;;;;5489343;26;20559;-45
2024/04/25 04:07:29;;;;;;;6.47;5.77;;;2.90;1.00;;;;;;5488025;26;20469;-46
2024/04/25 04:09:55;;;;;;;6.20;5.60;;;2.90;1.00;;;;;;5488500;26;21863;-46
2024/04/25 04:12:20;;;;;;;6.77;5.40;;;2.90;1.00;;;;;;5488576;26;20659;-46
2024/04/25 04:14:46;;;;;;;9.07;5.87;;;2.90;1.00;;;;;;5488383;26;20461;-46
2024/04/25 04:17:12;;;;;;;6.53;5.90;;;2.80;1.00;;;;;;5486371;26;20229;-46
2024/04/25 04:19:38;;;;;;;6.43;5.50;;;2.90;1.00;;;;;;5486715;26;20466;-46
2024/04/25 04:22:04;;;;;;;6.63;5.50;;;2.90;1.00;;;;;;5486870;26;20237;-46
2024/04/25 04:24:29;;;;;;;6.40;5.57;;;2.90;1.00;;;;;;5487554;26;20261;-46
2024/04/25 04:26:55;;;;;;;6.93;6.20;;;2.90;1.00;;;;;;5485855;26;21012;-46
2024/04/25 04:29:21;;;;;;;6.20;5.27;;;3.00;1.00;;;;;;5485044;26;20228;-50
2024/04/25 04:31:47;;;;;;;6.30;5.70;;;3.00;1.00;;;;;;5484959;26;20233;-45
2024/04/25 04:34:12;;;;;;;6.53;5.83;;;3.00;1.00;;;;;;5485629;26;20502;-45
2024/04/25 04:36:38;;;;;;;7.57;5.97;;;3.00;1.00;;;;;;5485762;26;20329;-46
2024/04/25 04:39:05;;;;;;;6.87;6.17;;;3.10;1.00;;;;;;5484501;26;20558;-46
2024/04/25 04:41:31;;;;;;;7.00;6.30;;;3.20;1.00;;;;;;5485444;26;20486;-45
2024/04/25 04:43:59;;;;;;;7.53;6.47;;;3.20;1.00;;;;;;5487232;26;20445;-45
2024/04/25 04:46:25;;;;;;;6.40;5.80;;;3.20;1.00;;;;;;5488804;26;20228;-46
2024/04/25 04:48:50;;;;;;;7.40;6.00;;;3.20;1.00;;;;;;5486509;26;20630;-46
2024/04/25 04:51:18;;;;;;;6.80;6.10;;;3.30;1.00;;;;;;5488795;26;20266;-46
2024/04/25 04:53:44;;;;;;;7.00;6.30;;;3.30;1.00;;;;;;5489765;26;20225;-45
2024/04/25 04:56:10;;;;;;;7.17;5.83;;;3.30;1.00;;;;;;5487620;26;20635;-46
2024/04/25 04:58:36;;;;;;;7.70;6.47;;;3.30;1.00;;;;;;5488048;26;20808;-46
2024/04/25 05:01:02;;;;;;;6.80;6.20;;;3.40;1.00;;;;;;5487571;26;20496;-46
2024/04/25 05:03:27;;;;;;;8.20;6.67;;;3.40;1.00;;;;;;5488720;26;20314;-46
2024/04/25 05:05:53;;;;;;;10.33;6.70;;;3.50;1.00;;;;;;5483984;26;20766;-45
2024/04/25 05:08:19;;;;;;;9.83;7.00;;;3.50;1.00;;;;;;5484101;26;20748;-46
2024/04/25 05:10:44;;;;;;;7.87;6.80;;;3.60;1.00;;;;;;5484579;26;20341;-46
2024/04/25 05:13:10;;;;;;;9.70;7.03;;;3.60;1.00;;;;;;5484753;26;20302;-46
2024/04/25 05:15:36;;;;;;;8.27;6.73;;;3.60;1.00;;;;;;5483976;26;20213;-46
2024/04/25 05:18:03;;;;;;;6.43;5.77;;;3.70;1.00;;;;;;5485814;26;20446;-46
2024/04/25 05:20:29;;;;;;;7.20;6.50;;;3.70;1.00;;;;;;5489075;26;20924;-45
2024/04/25 05:22:55;;;;;;;7.27;6.13;;;3.70;1.00;;;;;;5486973;26;20473;-46
2024/04/25 05:25:21;;;;;;;9.03;6.60;;;3.70;1.00;;;;;;5488646;26;20747;-46
2024/04/25 05:27:47;;;;;;;8.13;7.30;;;3.70;1.00;;;;;;5453968;26;20822;-46
2024/04/25 05:30:16;;;;;;;8.30;7.10;;;3.70;1.00;;;;;;5485988;26;20301;-45
2024/04/25 05:32:41;;;;;;;7.87;7.07;;;3.70;1.00;;;;;;5488158;26;20229;-46
2024/04/25 05:35:08;;;;;;;9.80;6.80;;;3.60;1.00;;;;;;5456720;26;20928;-45
2024/04/25 05:37:33;;;;;;;10.33;7.73;;;3.60;1.00;;;;;;5487561;26;20271;-45
2024/04/25 05:39:59;;;;;;;8.37;7.57;;;3.60;1.00;;;;;;5487821;26;20454;-45
2024/04/25 05:42:24;;;;;;;12.07;7.57;;;3.80;1.00;;;;;;5488689;26;20276;-46
2024/04/25 05:44:50;;;;;;;8.47;7.10;;;3.80;1.00;;;;;;5489954;26;20275;-45
2024/04/25 05:47:19;;;;;;;9.67;8.40;;;3.90;1.00;;;;;;5487655;26;20244;-46
2024/04/25 05:49:49;;;;;;;9.90;7.80;;;4.00;1.00;;;;;;5488457;26;20242;-45
2024/04/25 05:52:21;;;;;;;8.57;7.33;;;4.10;1.00;;;;;;5488657;26;20506;-45
2024/04/25 05:54:49;;;;;;;9.23;6.77;;;4.20;1.00;;;;;;5488290;26;20449;-46
2024/04/25 05:57:15;;;;;;;7.90;7.10;;;4.10;1.00;;;;;;5487060;26;20565;-46
2024/04/25 05:59:40;;;;;;;9.07;6.40;;;4.10;1.00;;;;;;5488001;26;20521;-46
2024/04/25 06:02:07;;;;;;;8.43;6.53;;;4.10;1.00;;;;;;5485830;26;20793;-45
2024/04/25 06:04:33;;;;;;;7.40;6.70;;;4.10;1.00;;;;;;5485715;26;20244;-45
2024/04/25 06:06:59;;;;;;;8.40;6.60;;;4.10;1.00;;;;;;5488299;26;20506;-45
2024/04/25 06:09:25;;;;;;;8.13;7.33;;;4.10;1.00;;;;;;5490367;26;20442;-46
2024/04/25 06:11:51;;;;;;;15.63;7.97;;;4.10;1.00;;;;;;5486107;26;20506;-46
2024/04/25 06:14:17;;;;;;;10.30;6.63;;;4.10;1.00;;;;;;5488344;26;20896;-48
2024/04/25 06:16:43;;;;;;;9.43;7.90;;;4.10;1.00;;;;;;5486684;26;20513;-46
2024/04/25 06:19:09;;;;;;;8.67;7.83;;;4.10;1.00;;;;;;5486535;26;20590;-44
2024/04/25 06:21:35;;;;;;;10.17;8.27;;;4.20;1.00;;;;;;5483449;26;20212;-46
2024/04/25 06:24:04;;;;;;;7.57;6.73;;;4.40;1.00;;;;;;5486476;26;20506;-46
2024/04/25 06:26:30;;;;;;;7.40;6.30;;;4.40;1.00;;;;;;5489373;26;20449;-46
2024/04/25 06:28:55;;;;;;;9.77;6.50;;;4.50;1.00;;;;;;5488462;26;20833;-45
2024/04/25 06:31:23;;;;;;;6.37;5.47;;;4.60;1.00;;;;;;5487716;26;20266;-44
2024/04/25 06:33:49;;;;;;;8.33;6.50;;;4.60;1.00;;;;;;5453903;26;20224;-44
2024/04/25 06:36:15;;;;;;;6.20;5.60;;;4.80;99.90;;;;;;5485556;26;20524;-44
2024/04/25 06:38:41;;;;;;;10.00;6.00;;;4.80;99.90;;;;;;5485598;26;20454;-45
2024/04/25 06:41:06;;;;;;;9.37;6.67;;;5.10;99.90;;;;;;5487513;26;20659;-46
2024/04/25 06:43:32;;;;;;;8.07;6.10;;;5.10;99.90;;;;;;5487070;26;20507;-45
2024/04/25 06:45:58;;;;;;;8.13;5.37;;;5.10;99.90;;;;;;5487968;26;20276;-45
2024/04/25 06:48:23;;;;;;;9.13;5.40;;;5.30;99.90;;;;;;5486531;26;20209;-45
2024/04/25 06:50:49;;;;;;;8.53;5.20;;;5.50;99.90;;;;;;5483685;26;20295;-45
2024/04/25 06:53:15;;;;;;;6.23;4.83;;;5.60;99.90;;;;;;5486691;26;20228;-48
2024/04/25 06:55:43;;;;;;;5.40;4.70;;;5.50;98.40;;;;;;5488828;26;20236;-45
2024/04/25 06:58:09;;;;;;;5.37;4.33;;;5.60;38.30;;;;;;5486675;26;20244;-45
2024/04/25 07:00:35;;;;;;;4.93;4.07;;;5.70;1.00;;;;;;5487076;26;20477;-45
2024/04/25 07:03:01;;;;;;;5.23;3.47;;;6.00;1.00;;;;;;5486227;26;20224;-45
2024/04/25 07:05:26;;;;;;;3.30;3.00;;;6.10;99.90;;;;;;5489773;26;20462;-45
2024/04/25 07:07:53;;;;;;;4.23;2.50;;;6.20;1.00;;;;;;5486815;26;20332;-45
2024/04/25 07:10:19;;;;;;;3.90;2.50;;;6.20;99.90;;;;;;5486922;26;20284;-45
2024/04/25 07:12:44;;;;;;;3.67;2.80;;;6.50;36.80;;;;;;5485811;26;20880;-45
2024/04/25 07:15:10;;;;;;;4.50;2.73;;;6.40;1.00;;;;;;5489586;26;20550;-45
2024/04/25 07:17:36;;;;;;;3.97;2.70;;;6.40;1.00;;;;;;5485851;26;20317;-45
2024/04/25 07:20:03;;;;;;;3.20;2.47;;;6.60;1.00;;;;;;5485071;26;20240;-45
2024/04/25 07:22:29;;;;;;;6.30;2.80;;;6.80;1.00;;;;;;5486191;26;20502;-45
2024/04/25 07:24:56;;;;;;;3.63;3.27;;;6.90;99.90;;;;;;5485497;26;20763;-45
2024/04/25 07:27:21;;;;;;;5.70;3.60;;;6.90;99.90;;;;;;5453856;26;20224;-45
2024/04/25 07:29:47;;;;;;;6.03;3.10;;;6.90;99.90;;;;;;5489053;26;20446;-47
2024/04/25 07:32:16;;;;;;;5.90;3.30;;;6.70;1.00;;;;;;5453488;26;20271;-45
2024/04/25 07:34:43;;;;;;;5.00;3.40;;;7.00;2.30;;;;;;5488059;26;20515;-45
2024/04/25 07:37:09;;;;;;;5.60;4.27;;;7.20;99.90;;;;;;5453933;26;20732;-45
2024/04/25 07:39:34;;;;;;;6.50;4.00;;;7.50;99.90;;;;;;5488032;26;20466;-45
2024/04/25 07:42:00;;;;;;;5.70;3.80;;;7.10;1.00;;;;;;5487966;26;20438;-45
2024/04/25 07:44:26;;;;;;;4.60;3.10;;;7.20;52.50;;;;;;5488227;26;20322;-45
2024/04/25 07:46:51;;;;;;;5.03;3.57;;;7.10;99.90;;;;;;5487117;26;20229;-45
2024/04/25 07:49:17;;;;;;;3.90;3.10;;;7.20;99.90;;;;;;5487314;26;20271;-45
2024/04/25 07:51:43;;;;;;;7.37;4.33;;;7.10;1.00;;;;;;5456213;26;20228;-45
2024/04/25 07:54:09;;;;;;;4.40;3.13;;;7.20;99.90;;;;;;5488223;26;20260;-45
2024/04/25 07:56:35;;;;;;;4.93;4.03;;;7.40;1.00;;;;;;5487446;26;20505;-44
2024/04/25 07:59:01;;;;;;;3.83;3.47;;;7.40;1.00;;;;;;5450561;26;20506;-45
2024/04/25 08:01:26;;;;;;;5.70;4.40;;;7.50;1.00;;;;;;5487714;26;20505;-45
2024/04/25 08:03:52;;;;;;;6.10;4.40;;;7.50;99.90;;;;;;5487571;26;20220;-45
2024/04/25 08:06:18;;;;;;;4.93;3.97;;;7.20;98.40;;;;;;5488429;26;20448;-45
2024/04/25 08:08:44;;;;;;;3.90;3.37;;;7.20;1.00;;;;;;5486293;26;20240;-45
2024/04/25 08:11:10;;;;;;;7.57;5.03;;;7.20;99.90;;;;;;5491785;26;20446;-45
2024/04/25 08:13:36;;;;;;;7.67;4.33;;;7.00;99.90;;;;;;5490613;26;20509;-45
2024/04/25 08:16:02;;;;;;;5.20;3.83;;;7.00;1.00;;;;;;5490850;26;20852;-45
2024/04/25 08:18:28;;;;;;;4.87;3.80;;;7.20;27.20;;;;;;5491708;26;20228;-45
2024/04/25 08:20:53;;;;;;;6.23;3.60;;;7.20;1.00;;;;;;5489751;26;20275;-45
2024/04/25 08:23:19;;;;;;;7.97;6.23;;;7.40;1.00;;;;;;5491155;26;20457;-45
2024/04/25 08:25:45;;;;;;;11.60;10.40;;;7.70;1.00;;;;;;5491436;26;20464;-45
2024/04/25 08:28:11;;;;;;;6.53;5.63;;;7.70;99.90;;;;;;5491662;26;20264;-46
2024/04/25 08:30:36;;;;;;;4.80;4.40;;;7.80;99.90;;;;;;5492392;26;20220;-45
2024/04/25 08:33:02;;;;;;;8.83;7.73;;;8.00;99.90;;;;;;5492718;26;20422;-45
2024/04/25 08:35:28;;;;;;;4.40;3.13;;;8.10;1.00;;;;;;5459009;26;20843;-45
2024/04/25 08:37:53;;;;;;;5.03;3.03;;;8.00;99.90;;;;;;5489482;26;20254;-49
2024/04/25 08:40:19;;;;;;;4.73;2.67;;;7.90;99.90;;;;;;5485701;26;20229;-49
2024/04/25 08:42:49;;;;;;;5.10;3.27;;;8.00;1.00;;;;;;5488724;26;20213;-49
2024/04/25 08:45:16;;;;;;;5.23;2.67;;;8.30;99.90;;;;;;5487759;26;20240;-49
2024/04/25 08:47:42;;;;;;;2.73;2.33;;;8.30;1.00;;;;;;5485468;26;20497;-50
2024/04/25 08:50:09;;;;;;;4.17;2.90;;;8.70;1.00;;;;;;5487136;26;20862;-41
2024/04/25 08:52:38;;;;;;;3.87;2.50;;;8.90;1.00;;;;;;5486756;26;20902;-43
2024/04/25 08:55:06;;;;;;;5.90;3.43;;;9.50;1.00;;;;;;5489505;26;20449;-41
2024/04/25 08:57:32;;;;;;;5.70;3.00;;;9.80;99.90;;;;;;5492503;26;20531;-40
2024/04/25 08:59:58;;;;;;;4.67;2.63;;;9.50;99.90;;;;;;5456378;26;20446;-41
2024/04/25 09:02:26;;;;;;;3.00;2.50;;;9.40;99.90;;;;;;5489273;26;20786;-41
2024/04/25 09:04:56;;;;;;;4.97;3.10;;;9.20;99.90;;;;;;5492434;26;20600;-41
2024/04/25 09:07:22;;;;;;;3.40;2.50;;;8.90;99.90;;;;;;5492110;26;20522;-43
2024/04/25 09:09:47;;;;;;;3.63;2.67;;;8.60;99.90;;;;;;5492906;26;20488;-42
2024/04/25 09:12:13;;;;;;;4.53;3.03;;;8.70;99.90;;;;;;5491901;26;20348;-41
2024/04/25 09:14:39;;;;;;;7.23;2.60;;;8.80;99.90;;;;;;5486430;26;20232;-41
2024/04/25 09:17:04;;;;;;;4.73;2.80;;;8.90;99.90;;;;;;5487509;26;20279;-42
2024/04/25 09:19:30;;;;;;;4.10;2.23;;;8.90;99.90;;;;;;5488924;26;20236;-40
2024/04/25 09:42:22;;;;;;;2.77;2.07;;;11.40;1.00;;;;;;5533001;25;20528;-43
2024/04/25 09:44:48;;;;;;;4.33;2.30;;;12.20;1.00;;;;;;5492248;26;20448;-43
2024/04/25 09:47:27;;;;;;;2.43;2.07;;;12.00;1.00;;;;;;5521273;26;20501;-42
2024/04/25 09:49:58;;;;;;;2.80;2.17;;;12.20;1.00;;;;;;5497177;26;20224;-41
2024/04/25 09:52:35;;;;;;;3.30;1.93;;;11.90;1.00;;;;;;5527487;26;20456;-44
2024/04/25 09:55:04;;;;;;;2.80;1.80;;;11.70;1.00;;;;;;5527480;26;20440;-42
2024/04/25 09:57:35;;;;;;;2.40;2.17;;;11.30;1.00;;;;;;5494982;26;20532;-43
2024/04/25 10:00:18;;;;;;;2.63;2.43;;;11.00;1.00;;;;;;5495032;26;20452;-42
2024/04/25 10:02:48;;;;;;;3.80;2.43;;;10.30;1.00;;;;;;5494050;26;20489;-42
2024/04/25 10:05:14;;;;;;;3.33;2.17;;;10.20;1.00;;;;;;5480651;26;20441;-41
2024/04/25 10:07:40;;;;;;;3.30;2.20;;;9.90;1.00;;;;;;5525667;26;20457;-45
2024/04/25 10:10:10;;;;;;;3.97;2.20;;;9.90;1.00;;;;;;5524994;26;20448;-43
2024/04/25 10:12:36;;;;;;;3.23;2.57;;;9.80;1.00;;;;;;5493234;26;20432;-42
2024/04/25 10:15:09;;;;;;;3.80;2.30;;;9.90;1.00;;;;;;5524890;26;20500;-40
2024/04/25 10:17:37;;;;;;;3.37;2.10;;;10.10;1.00;;;;;;5492340;26;20227;-41
2024/04/25 10:20:32;;;;;;;3.87;1.90;;;10.10;1.00;;;;;;5492209;26;20495;-45
2024/04/25 10:23:04;;;;;;;5.23;2.23;;;10.50;1.00;;;;;;5493892;26;20918;-43
2024/04/25 10:25:30;;;;;;;5.10;1.97;;;11.40;1.00;;;;;;5494433;26;20452;-43
2024/04/25 10:28:18;;;;;;;3.40;1.73;;;11.70;1.00;;;;;;5524931;26;20591;-42
2024/04/25 10:30:52;;;;;;;3.73;1.67;;;12.00;1.00;;;;;;5499754;25;20693;-44
2024/04/25 10:33:21;;;;;;;2.13;1.50;;;11.80;1.00;;;;;;5521746;25;20568;-40
2024/04/25 10:35:53;;;;;;;1.63;1.40;;;11.50;1.00;;;;;;5524076;25;20508;-41
2024/04/25 10:38:23;;;;;;;2.60;1.60;;;11.00;1.00;;;;;;5525548;25;20599;-40
2024/04/25 10:40:51;;;;;;;2.10;1.50;;;11.20;1.00;;;;;;5519385;25;20457;-41
2024/04/25 10:43:18;;;;;;;5.57;2.03;;;11.20;1.00;;;;;;5520650;25;20519;-41
2024/04/25 10:45:45;;;;;;;2.87;2.03;;;11.00;1.00;;;;;;5524937;25;20464;-43
2024/04/25 10:48:14;;;;;;;3.07;1.67;;;11.20;1.00;;;;;;5518394;26;20452;-39
2024/04/25 10:50:44;;;;;;;3.30;2.07;;;11.10;1.00;;;;;;5522299;25;20452;-41
2024/04/25 10:53:10;;;;;;;6.63;1.80;;;10.90;1.00;;;;;;5518492;25;20494;-40
2024/04/25 10:55:39;;;;;;;1.80;1.63;;;11.10;1.00;;;;;;5519262;25;20694;-43
2024/04/25 10:58:14;;;;;;;2.50;2.00;;;11.00;1.00;;;;;;5521140;25;20743;-41
2024/04/25 11:00:41;;;;;;;2.80;1.97;;;11.70;1.00;;;;;;5522621;25;20460;-42
2024/04/25 11:03:09;;;;;;;4.07;2.40;;;11.80;1.00;;;;;;5527678;25;21046;-40
2024/04/25 11:05:47;;;;;;;3.97;2.07;;;12.60;1.00;;;;;;5559505;25;20451;-42
2024/04/25 11:08:13;;;;;;;3.77;2.40;;;12.70;1.00;;;;;;5561898;25;20439;-42
2024/04/25 11:10:44;;;;;;;3.77;2.23;;;13.30;1.00;;;;;;5558216;25;20443;-40
2024/04/25 11:13:10;;;;;;;4.80;3.20;;;14.00;1.00;;;;;;5559812;25;20268;-42
2024/04/25 11:15:37;;;;;;;4.03;2.03;;;13.60;1.00;;;;;;5559247;25;20835;-40
2024/04/25 11:18:03;;;;;;;3.40;1.80;;;13.60;1.00;;;;;;5558694;25;20211;-42
2024/04/25 11:20:32;;;;;;;1.80;1.30;;;12.80;1.00;;;;;;5560647;25;20498;-42
2024/04/25 11:23:11;;;;;;;4.93;1.13;;;11.70;1.00;;;;;;5559171;25;20503;-42
2024/04/25 11:25:37;;;;;;;1.90;1.00;;;10.80;1.00;;;;;;5561397;25;20913;-44
2024/04/25 11:28:09;;;;;;;4.47;1.23;;;10.10;1.00;;;;;;5559009;25;20892;-41
2024/04/25 11:30:35;;;;;;;2.00;1.50;;;9.90;1.00;;;;;;5578086;25;20465;-42
2024/04/25 11:33:06;;;;;;;1.93;0.87;;;10.10;1.00;;;;;;5566834;25;20546;-41
2024/04/25 11:35:32;;;;;;;2.50;1.07;;;9.90;1.00;;;;;;5566091;25;20325;-42
2024/04/25 11:37:58;;;;;;;2.60;1.40;;;9.80;1.00;;;;;;5593727;25;20469;-41
2024/04/25 11:40:31;;;;;;;2.07;1.10;;;10.30;1.00;;;;;;5597584;25;20544;-41
2024/04/25 11:42:58;;;;;;;3.10;1.60;;;10.30;1.00;;;;;;5596779;25;20486;-41
2024/04/25 11:45:23;;;;;;;2.30;1.17;;;10.80;1.00;;;;;;5595190;25;20442;-42
2024/04/25 11:47:49;;;;;;;2.60;1.27;;;12.60;1.00;;;;;;5561104;25;20892;-42
2024/04/25 11:50:17;;;;;;;4.57;1.70;;;14.50;1.00;;;;;;5563295;25;20225;-45
2024/04/25 11:52:46;;;;;;;2.80;2.00;;;14.90;1.00;;;;;;5598480;25;20226;-43
2024/04/25 11:55:15;;;;;;;2.33;1.90;;;15.60;1.00;;;;;;5597872;25;20457;-41
2024/04/25 11:57:44;;;;;;;4.00;1.90;;;15.00;1.00;;;;;;5596516;25;20437;-42
2024/04/25 12:00:14;;;;;;;2.77;2.00;;;14.70;1.00;;;;;;5564765;25;20938;-44
2024/04/25 12:02:45;;;;;;;2.53;2.20;;;13.80;1.00;;;;;;5565926;25;20722;-41
2024/04/25 12:05:21;;;;;;;;;;;;;;;;;;;;;
2024/04/25 12:07:50;;;;;;;4.90;2.17;;;14.00;1.00;;;;;;5597346;25;20770;-46
2024/04/25 12:10:18;;;;;;;4.57;2.20;;;14.00;1.00;;;;;;5599533;25;20458;-43
2024/04/25 12:12:43;;;;;;;7.53;2.83;;;13.60;1.00;;;;;;5598196;25;20478;-41
2024/04/25 12:15:09;;;;;;;2.00;1.70;;;13.90;1.00;;;;;;5578656;25;20496;-41
2024/04/25 12:17:35;;;;;;;2.53;2.03;;;13.40;1.00;;;;;;5525342;25;20216;-41
2024/04/25 12:20:02;;;;;;;2.80;1.97;;;13.70;1.00;;;;;;5494076;25;20562;-43
2024/04/25 12:22:28;;;;;;;2.60;2.23;;;14.50;1.00;;;;;;5463115;26;20544;-43
2024/04/25 12:24:53;;;;;;;2.23;2.03;;;14.30;1.00;;;;;;5525506;25;20448;-43
2024/04/25 12:27:19;;;;;;;2.43;1.90;;;14.90;1.00;;;;;;5496638;25;20537;-43
2024/04/25 12:29:45;;;;;;;1.87;1.60;;;14.50;1.00;;;;;;5486903;26;20205;-43
2024/04/25 12:32:13;;;;;;;2.30;1.43;;;14.90;1.00;;;;;;5487831;26;20565;-42
2024/04/25 12:34:42;;;;;;;3.03;1.70;;;14.40;1.00;;;;;;5483130;26;20279;-41
2024/04/25 12:37:07;;;;;;;7.50;1.77;;;14.80;1.00;;;;;;5483995;26;20469;-41
2024/04/25 12:39:40;;;;;;;2.60;1.70;;;15.20;1.00;;;;;;5482101;26;20571;-42
2024/04/25 12:42:08;;;;;;;2.33;1.43;;;16.00;1.00;;;;;;5454339;26;20548;-42
2024/04/25 12:44:49;;;;;;;2.67;1.60;;;16.30;1.00;;;;;;5487992;26;20516;-41
2024/04/25 12:47:17;;;;;;;4.40;4.00;;;16.30;1.00;;;;;;5485977;26;20458;-44
2024/04/25 12:49:43;;;;;;;2.20;2.00;;;16.60;1.00;;;;;;5487841;26;20511;-43
2024/04/25 12:52:10;;;;;;;3.23;1.60;;;16.00;1.00;;;;;;5423568;26;20466;-39
2024/04/25 12:54:37;;;;;;;2.20;1.67;;;16.70;1.00;;;;;;5449884;26;20255;-40
2024/04/25 12:57:22;;;;;;;2.70;1.47;;;16.90;1.00;;;;;;5456972;26;20966;-41
2024/04/25 12:59:51;;;;;;;3.53;1.80;;;17.00;1.00;;;;;;5492512;26;20835;-44
2024/04/25 13:02:17;;;;;;;3.67;1.80;;;16.60;1.00;;;;;;5490859;26;20522;-41
2024/04/25 13:04:48;;;;;;;2.37;1.77;;;16.30;1.00;;;;;;5486616;26;20442;-41
2024/04/25 13:07:14;;;;;;;3.80;2.30;;;15.60;1.00;;;;;;5488651;26;20212;-42
2024/04/25 13:09:41;;;;;;;2.73;1.77;;;14.60;1.00;;;;;;5489474;26;20457;-43
2024/04/25 13:12:10;;;;;;;2.00;1.80;;;14.20;1.00;;;;;;5484053;26;20341;-41
2024/04/25 13:14:38;;;;;;;2.00;1.70;;;13.90;1.00;;;;;;5488351;26;20445;-42
2024/04/25 13:17:06;;;;;;;2.40;2.00;;;13.80;1.00;;;;;;5491452;26;20434;-43
2024/04/25 13:19:33;;;;;;;5.73;2.40;;;13.50;1.00;;;;;;5489911;26;20462;-42
2024/04/25 13:21:58;;;;;;;3.00;2.20;;;13.10;1.00;;;;;;5458158;26;20504;-40
2024/04/25 13:24:27;;;;;;;3.23;1.90;;;12.30;1.00;;;;;;5491320;26;20503;-40
2024/04/25 13:26:56;;;;;;;2.53;1.80;;;12.00;1.00;;;;;;5490762;26;20276;-43